Time;durP1;ratioP1;P1;durP2;ratioP2;P2;SDS_P1;SDS_P2;PMS_P1;PMS_P2;Temp;Humidity;BMP_temperature;BMP_pressure;BME280_temperature;BME280_humidity;BME280_pressure;Samples;Min_cycle;Max_cycle;Signal;HPM_P1;HPM_P2
2023/01/27 00:00:43;;;;;;;79.22;33.50;;;;;;;-0.33;100.00;91895.22;5042823;28;20065;-78
2023/01/27 00:03:12;;;;;;;75.00;31.52;;;;;;;-0.34;100.00;91891.09;5061293;28;20044;-78
2023/01/27 00:05:37;;;;;;;92.60;34.95;;;;;;;-0.37;100.00;91899.28;5058345;28;20090;-78
2023/01/27 00:08:03;;;;;;;89.13;34.88;;;;;;;-0.35;100.00;91892.13;5059826;28;20092;-77
2023/01/27 00:10:29;;;;;;;82.00;33.67;;;;;;;-0.35;100.00;91884.41;5060110;28;20715;-78
2023/01/27 00:15:39;;;;;;;63.63;28.48;;;;;;;-0.34;100.00;91884.13;5041843;28;20057;-78
2023/01/27 00:18:05;;;;;;;66.80;27.92;;;;;;;-0.28;100.00;91883.22;5042105;28;20033;-78
2023/01/27 00:26:05;;;;;;;84.70;34.72;;;;;;;-0.45;100.00;91887.56;5060255;28;20041;-78
2023/01/27 00:28:41;;;;;;;83.95;34.25;;;;;;;-0.43;100.00;91883.78;5060777;28;20051;-78
2023/01/27 00:33:54;;;;;;;77.75;32.55;;;;;;;-0.37;100.00;91873.56;5059324;28;20507;-78
2023/01/27 00:36:21;;;;;;;86.88;33.63;;;;;;;-0.32;100.00;91884.69;5025868;28;20032;-78
2023/01/27 00:38:47;;;;;;;85.80;34.97;;;;;;;-0.35;100.00;91887.75;5057047;28;20045;-77
2023/01/27 00:41:19;;;;;;;85.38;34.83;;;;;;;-0.40;100.00;91885.09;5037815;28;20045;-77
2023/01/27 00:43:46;;;;;;;89.55;36.17;;;;;;;-0.44;100.00;91876.28;5042091;28;20135;-77
2023/01/27 00:46:12;;;;;;;88.32;35.25;;;;;;;-0.42;100.00;91876.84;5060387;28;20506;-78
2023/01/27 00:48:38;;;;;;;92.82;35.00;;;;;;;-0.42;100.00;91877.59;5038343;28;20068;-78
2023/01/27 00:51:04;;;;;;;84.53;33.85;;;;;;;-0.43;100.00;91875.25;5042439;28;20299;-78
2023/01/27 00:53:30;;;;;;;79.03;30.98;;;;;;;-0.36;100.00;91875.91;5041047;28;20502;-78
2023/01/27 00:55:57;;;;;;;67.05;29.30;;;;;;;-0.38;100.00;91880.50;5042791;28;20040;-78
2023/01/27 00:58:26;;;;;;;72.05;30.65;;;;;;;-0.40;100.00;91868.91;5042386;28;20052;-78
2023/01/27 01:00:58;;;;;;;80.70;30.77;;;;;;;-0.41;100.00;91862.94;5039097;28;20053;-78
2023/01/27 01:03:25;;;;;;;76.68;29.85;;;;;;;-0.40;100.00;91861.94;5055840;28;20041;-78
2023/01/27 01:05:51;;;;;;;76.50;30.10;;;;;;;-0.41;100.00;91862.94;5043074;28;20037;-78
2023/01/27 01:08:17;;;;;;;63.75;27.67;;;;;;;-0.42;100.00;91858.84;5041574;28;20048;-79
2023/01/27 01:10:43;;;;;;;66.45;27.55;;;;;;;-0.45;100.00;91867.00;5040592;28;20139;-77
2023/01/27 01:13:11;;;;;;;71.30;29.45;;;;;;;-0.46;100.00;91862.88;5041684;28;20049;-78
2023/01/27 01:15:38;;;;;;;69.57;28.65;;;;;;;-0.46;100.00;91865.44;5038546;28;20585;-78
2023/01/27 01:18:06;;;;;;;65.13;26.77;;;;;;;-0.46;100.00;91868.78;5038700;28;20048;-78
2023/01/27 01:20:37;;;;;;;62.22;28.02;;;;;;;-0.47;100.00;91858.75;5045059;28;20045;-78
2023/01/27 01:23:04;;;;;;;66.47;27.80;;;;;;;-0.48;100.00;91862.34;5059646;28;20495;-78
2023/01/27 01:25:29;;;;;;;60.25;26.70;;;;;;;-0.43;100.00;91867.53;5060724;28;20125;-78
2023/01/27 01:27:55;;;;;;;64.50;26.63;;;;;;;-0.48;100.00;91859.75;5039812;28;20061;-78
2023/01/27 01:30:20;;;;;;;62.72;27.88;;;;;;;-0.50;100.00;91854.84;5024745;28;20041;-78
2023/01/27 01:32:46;;;;;;;66.45;28.45;;;;;;;-0.53;100.00;91857.13;5040831;28;20124;-78
2023/01/27 01:35:12;;;;;;;62.13;27.27;;;;;;;-0.50;100.00;91859.22;5041462;28;20064;-78
2023/01/27 01:37:39;;;;;;;70.53;29.33;;;;;;;-0.52;100.00;91853.53;5060389;28;20041;-78
2023/01/27 01:40:05;;;;;;;73.88;30.05;;;;;;;-0.56;100.00;91858.38;5042933;28;20033;-78
2023/01/27 01:42:52;;;;;;;64.55;28.35;;;;;;;-0.56;100.00;91860.13;5022487;28;20055;-77
2023/01/27 01:45:30;;;;;;;62.28;26.70;;;;;;;-0.61;100.00;91853.13;5051651;28;20045;-77
2023/01/27 01:48:01;;;;;;;63.92;27.52;;;;;;;-0.65;100.00;91857.97;5038879;28;20060;-77
2023/01/27 01:50:27;;;;;;;68.28;26.00;;;;;;;-0.65;100.00;91852.81;5025229;28;20040;-78
2023/01/27 01:52:53;;;;;;;64.82;24.90;;;;;;;-0.59;100.00;91851.09;5057881;28;20123;-78
2023/01/27 01:55:20;;;;;;;60.63;24.92;;;;;;;-0.58;100.00;91855.25;5041306;28;20061;-78
2023/01/27 01:57:46;;;;;;;58.13;25.77;;;;;;;-0.64;100.00;91846.66;5057818;28;20057;-78
2023/01/27 02:00:12;;;;;;;63.03;27.30;;;;;;;-0.65;100.00;91844.34;5060087;28;20037;-78
2023/01/27 02:02:42;;;;;;;62.67;26.40;;;;;;;-0.67;100.00;91839.44;5056778;28;20036;-78
2023/01/27 02:05:40;;;;;;;55.33;25.45;;;;;;;-0.68;100.00;91842.22;5041191;28;20136;-77
2023/01/27 02:08:16;;;;;;;60.97;26.92;;;;;;;-0.68;100.00;91843.00;5057301;28;20079;-78
2023/01/27 02:10:43;;;;;;;63.55;28.52;;;;;;;-0.68;100.00;91850.72;5040446;28;20052;-77
2023/01/27 02:13:09;;;;;;;66.35;27.88;;;;;;;-0.66;100.00;91847.91;5041107;28;20041;-78
2023/01/27 02:15:37;;;;;;;71.68;28.83;;;;;;;-0.68;100.00;91844.78;5038335;28;20076;-78
2023/01/27 02:18:03;;;;;;;70.65;29.15;;;;;;;-0.67;100.00;91838.66;5058079;28;20040;-78
2023/01/27 02:20:45;;;;;;;73.68;30.85;;;;;;;-0.66;100.00;91838.41;5055600;28;20045;-78
2023/01/27 02:23:28;;;;;;;79.18;31.90;;;;;;;-0.66;100.00;91840.19;5039275;28;20174;-78
2023/01/27 02:26:01;;;;;;;81.25;33.35;;;;;;;-0.71;100.00;91838.31;5057790;28;20120;-78
2023/01/27 02:28:28;;;;;;;79.95;32.58;;;;;;;-0.69;100.00;91835.53;5041085;28;20052;-78
2023/01/27 02:30:54;;;;;;;84.82;34.03;;;;;;;-0.71;100.00;91838.31;5035327;28;20033;-78
2023/01/27 02:33:20;;;;;;;82.47;32.75;;;;;;;-0.69;100.00;91832.97;5039229;28;20458;-78
2023/01/27 02:35:50;;;;;;;78.38;33.00;;;;;;;-0.66;100.00;91835.81;5056951;28;20040;-78
2023/01/27 02:38:18;;;;;;;72.38;30.92;;;;;;;-0.67;100.00;91834.28;5057549;28;20483;-78
2023/01/27 02:40:46;;;;;;;64.43;28.27;;;;;;;-0.68;100.00;91822.44;5030331;28;20045;-78
2023/01/27 02:43:12;;;;;;;59.05;28.25;;;;;;;-0.67;100.00;91834.28;5026141;28;20080;-78
2023/01/27 02:45:38;;;;;;;57.80;25.10;;;;;;;-0.70;100.00;91834.75;5051455;28;20056;-78
2023/01/27 02:48:03;;;;;;;55.00;24.10;;;;;;;-0.70;100.00;91828.81;5062779;28;20041;-78
2023/01/27 02:50:30;;;;;;;56.75;24.13;;;;;;;-0.75;100.00;91832.09;5043112;28;20098;-78
2023/01/27 02:52:56;;;;;;;59.13;25.30;;;;;;;-0.78;100.00;91827.44;5043561;28;20048;-78
2023/01/27 02:55:21;;;;;;;57.92;25.63;;;;;;;-0.75;100.00;91824.38;5026847;28;20037;-78
2023/01/27 02:57:49;;;;;;;58.88;24.23;;;;;;;-0.80;100.00;91823.53;5042854;28;20045;-77
2023/01/27 03:00:30;;;;;;;57.13;23.70;;;;;;;-0.84;100.00;91818.06;5042916;28;20040;-78
2023/01/27 03:02:56;;;;;;;55.90;24.60;;;;;;;-0.75;100.00;91829.53;5043931;28;20123;-78
2023/01/27 03:05:23;;;;;;;56.45;23.85;;;;;;;-0.72;100.00;91826.50;5062171;28;20041;-78
2023/01/27 03:07:49;;;;;;;54.45;24.35;;;;;;;-0.72;100.00;91818.78;5044411;28;20057;-78
2023/01/27 03:10:15;;;;;;;55.90;23.40;;;;;;;-0.71;100.00;91828.03;5041865;28;20041;-78
2023/01/27 03:12:43;;;;;;;58.28;24.77;;;;;;;-0.70;100.00;91832.19;5061474;28;20056;-78
2023/01/27 03:18:10;;;;;;;68.70;30.55;;;;;;;-0.64;100.00;91827.91;5061042;28;20128;-78
2023/01/27 03:20:36;;;;;;;74.05;30.05;;;;;;;-0.66;100.00;91824.78;5059500;28;20113;-78
2023/01/27 03:23:02;;;;;;;75.43;28.88;;;;;;;-0.73;100.00;91830.06;5044846;28;20114;-78
2023/01/27 03:25:29;;;;;;;76.65;31.98;;;;;;;-0.76;100.00;91827.19;5026633;28;20070;-78
2023/01/27 03:27:55;;;;;;;84.05;34.15;;;;;;;-0.77;100.00;91839.25;5027034;28;20049;-78
2023/01/27 03:30:27;;;;;;;79.13;33.95;;;;;;;-0.78;100.00;91832.56;5040559;28;20047;-78
2023/01/27 03:33:04;;;;;;;75.53;31.60;;;;;;;-0.77;100.00;91830.78;5042851;28;20053;-78
2023/01/27 03:47:03;;;;;;;77.57;30.92;;;;;;;-0.89;100.00;91830.84;5061460;28;20049;-78
2023/01/27 03:49:29;;;;;;;83.00;31.65;;;;;;;-1.02;100.00;91836.28;5059944;28;20470;-78
2023/01/27 03:51:55;;;;;;;67.93;30.70;;;;;;;-1.06;100.00;91836.75;5057838;28;20569;-78
2023/01/27 03:54:21;;;;;;;64.32;26.35;;;;;;;-0.91;100.00;91835.44;5043705;28;20041;-78
2023/01/27 03:56:46;;;;;;;71.43;30.33;;;;;;;-0.92;100.00;91833.88;5060820;28;20385;-78
2023/01/27 03:59:13;;;;;;;69.75;31.45;;;;;;;-0.95;100.00;91836.91;5038344;28;20048;-77
2023/01/27 04:01:39;;;;;;;77.45;30.73;;;;;;;-0.97;100.00;91842.25;5053718;28;20245;-77
2023/01/27 04:06:57;;;;;;;60.67;28.58;;;;;;;-0.93;100.00;91840.78;5047487;28;20045;-78
2023/01/27 04:09:25;;;;;;;65.18;27.92;;;;;;;-1.14;100.00;91826.81;5061543;28;20059;-78
2023/01/27 04:11:55;;;;;;;74.40;27.73;;;;;;;-1.11;100.00;91841.00;5061536;28;20037;-78
2023/01/27 04:14:31;;;;;;;71.65;29.92;;;;;;;-1.18;100.00;91833.44;5061027;28;20047;-78
2023/01/27 04:17:03;;;;;;;71.80;27.98;;;;;;;-1.15;100.00;91832.19;5026194;28;20049;-78
2023/01/27 04:19:29;;;;;;;71.18;29.83;;;;;;;-1.18;100.00;91830.88;5059912;28;20131;-78
2023/01/27 04:21:56;;;;;;;75.45;29.50;;;;;;;-1.16;100.00;91836.56;5060159;28;20064;-78
2023/01/27 04:24:25;;;;;;;75.35;28.35;;;;;;;-1.15;100.00;91842.47;5061334;28;20108;-77
2023/01/27 04:27:02;;;;;;;65.25;27.00;;;;;;;-1.11;100.00;91844.34;5061257;28;20056;-78
2023/01/27 04:29:31;;;;;;;66.65;29.00;;;;;;;-1.12;100.00;91839.44;5061068;28;20041;-78
2023/01/27 04:31:57;;;;;;;72.63;29.13;;;;;;;-1.10;100.00;91840.78;5042366;28;20090;-78
2023/01/27 04:34:24;;;;;;;65.57;28.90;;;;;;;-1.12;100.00;91840.22;5062101;28;20373;-78
2023/01/27 04:36:50;;;;;;;72.18;29.98;;;;;;;-1.13;100.00;91843.78;5043964;28;20045;-78
2023/01/27 04:39:16;;;;;;;74.38;30.15;;;;;;;-1.09;100.00;91841.56;5061652;28;20041;-78
2023/01/27 04:41:43;;;;;;;71.60;29.85;;;;;;;-1.07;100.00;91842.88;5060051;28;20033;-78
2023/01/27 04:44:10;;;;;;;71.93;29.25;;;;;;;-1.13;100.00;91841.22;5060669;28;20037;-78
2023/01/27 04:46:35;;;;;;;72.22;29.92;;;;;;;-1.12;100.00;91842.78;5059283;28;20465;-78
2023/01/27 04:49:02;;;;;;;71.45;30.25;;;;;;;-1.13;100.00;91846.34;5060899;28;20048;-78
2023/01/27 04:51:28;;;;;;;72.10;27.92;;;;;;;-1.03;100.00;91845.00;5040700;28;20063;-78
2023/01/27 04:53:54;;;;;;;61.35;26.85;;;;;;;-1.04;100.00;91839.06;5040658;28;20070;-78
2023/01/27 04:56:24;;;;;;;72.68;30.15;;;;;;;-0.97;100.00;91833.78;5061568;28;20036;-78
2023/01/27 04:58:50;;;;;;;76.03;29.77;;;;;;;-0.98;100.00;91837.38;5045730;28;20379;-82
2023/01/27 05:01:17;;;;;;;69.45;29.70;;;;;;;-1.02;100.00;91831.13;5055326;28;20398;-78
2023/01/27 05:03:42;;;;;;;75.97;29.92;;;;;;;-1.05;100.00;91833.16;5042673;28;20052;-78
2023/01/27 05:06:11;;;;;;;71.85;28.70;;;;;;;-1.03;100.00;91838.06;5058436;28;20028;-78
2023/01/27 05:08:37;;;;;;;79.60;30.05;;;;;;;-1.00;100.00;91839.38;5041625;28;20037;-78
2023/01/27 05:11:04;;;;;;;74.03;29.88;;;;;;;-1.00;100.00;91844.53;5059607;28;20060;-78
2023/01/27 05:13:30;;;;;;;69.93;29.85;;;;;;;-1.12;100.00;91847.94;5059593;28;20052;-78
2023/01/27 05:16:14;;;;;;;67.75;28.98;;;;;;;-1.07;100.00;91836.97;5025302;28;20391;-78
2023/01/27 05:18:41;;;;;;;66.78;26.67;;;;;;;-1.14;100.00;91842.25;5060767;28;20117;-78
2023/01/27 05:21:10;;;;;;;69.13;27.88;;;;;;;-1.28;100.00;91851.25;5060647;28;20064;-78
2023/01/27 05:23:36;;;;;;;67.65;26.75;;;;;;;-1.30;100.00;91848.13;5059973;28;20063;-78
2023/01/27 05:26:14;;;;;;;65.38;28.17;;;;;;;-1.31;100.00;91849.88;5042511;28;20037;-78
2023/01/27 05:28:45;;;;;;;63.42;25.40;;;;;;;-1.21;100.00;91851.88;5041994;28;20041;-78
2023/01/27 05:31:17;;;;;;;74.35;27.88;;;;;;;-1.21;100.00;91849.31;5042304;28;20076;-78
2023/01/27 05:33:43;;;;;;;78.43;29.73;;;;;;;-1.20;100.00;91858.56;5059538;28;20076;-77
2023/01/27 05:36:11;;;;;;;71.47;29.13;;;;;;;-1.26;100.00;91852.56;5059745;28;20045;-78
2023/01/27 05:38:37;;;;;;;69.78;30.58;;;;;;;-1.32;100.00;91860.41;5058550;28;20179;-78
2023/01/27 05:41:05;;;;;;;78.90;31.08;;;;;;;-1.36;100.00;91862.66;5060242;28;20097;-78
2023/01/27 05:43:32;;;;;;;74.47;29.30;;;;;;;-1.40;100.00;91865.91;5060225;28;20123;-78
2023/01/27 05:46:05;;;;;;;78.97;29.88;;;;;;;-1.37;100.00;91866.22;5057375;28;20029;-78
2023/01/27 05:48:33;;;;;;;63.25;27.80;;;;;;;-1.37;100.00;91879.06;5058970;28;20063;-77
2023/01/27 05:50:59;;;;;;;66.15;28.90;;;;;;;-1.32;100.00;91873.25;5061561;28;20041;-77
2023/01/27 05:53:25;;;;;;;76.72;30.83;;;;;;;-1.35;100.00;91881.38;5057732;28;20051;-78
2023/01/27 05:55:51;;;;;;;69.05;28.52;;;;;;;-1.40;100.00;91878.72;5055359;28;20079;-77
2023/01/27 05:58:17;;;;;;;68.80;31.30;;;;;;;-1.40;100.00;91882.06;5058664;28;20067;-77
2023/01/27 06:00:44;;;;;;;79.45;30.10;;;;;;;-1.45;100.00;91879.41;5055946;28;20045;-79
2023/01/27 06:03:09;;;;;;;69.18;28.63;;;;;;;-1.52;100.00;91892.38;5060717;28;20044;-78
2023/01/27 06:05:35;;;;;;;73.80;29.75;;;;;;;-1.45;100.00;91896.63;5062194;28;20037;-78
2023/01/27 06:08:00;;;;;;;71.18;29.33;;;;;;;-1.48;100.00;91890.94;5058208;28;20483;-77
2023/01/27 06:10:26;;;;;;;77.22;29.67;;;;;;;-1.50;100.00;91890.38;5036617;28;20053;-77
2023/01/27 06:12:51;;;;;;;74.80;29.52;;;;;;;-1.46;100.00;91895.84;5050831;28;20055;-78
2023/01/27 06:15:17;;;;;;;71.38;28.25;;;;;;;-1.44;100.00;91896.41;5051220;28;20104;-78
2023/01/27 06:17:43;;;;;;;70.63;29.88;;;;;;;-1.44;100.00;91893.03;5057593;28;20053;-78
2023/01/27 06:20:10;;;;;;;81.90;29.90;;;;;;;-1.41;100.00;91890.78;5053297;28;20036;-77
2023/01/27 06:22:36;;;;;;;67.07;28.10;;;;;;;-1.30;100.00;91896.91;5046724;28;20045;-77
2023/01/27 06:25:01;;;;;;;75.13;30.23;;;;;;;-1.26;100.00;91903.16;5052445;28;20262;-77
2023/01/27 06:27:27;;;;;;;70.20;27.67;;;;;;;-1.30;100.00;91902.06;5051629;28;20053;-77
2023/01/27 06:29:53;;;;;;;49.65;23.35;;;;;;;-1.31;100.00;91901.25;5052529;28;20053;-77
2023/01/27 06:32:18;;;;;;;60.42;25.05;;;;;;;-1.34;100.00;91896.56;5033148;28;20055;-77
2023/01/27 06:34:44;;;;;;;53.33;23.25;;;;;;;-1.22;100.00;91899.09;5052213;28;20036;-77
2023/01/27 06:37:09;;;;;;;61.78;26.17;;;;;;;-1.21;100.00;91903.25;5051544;28;20099;-77
2023/01/27 06:39:35;;;;;;;62.65;26.25;;;;;;;-1.47;100.00;91897.59;5052575;28;20040;-77
2023/01/27 06:42:00;;;;;;;61.05;23.33;;;;;;;-1.31;100.00;91901.25;5056859;28;20045;-77
2023/01/27 06:44:26;;;;;;;64.45;26.33;;;;;;;-1.23;100.00;91907.06;5056055;28;20082;-77
2023/01/27 06:46:52;;;;;;;60.45;25.77;;;;;;;-1.34;100.00;91906.06;5058068;28;20045;-78
2023/01/27 06:49:18;;;;;;;52.50;22.73;;;;;;;-1.30;100.00;91912.31;5059717;28;20470;-78
2023/01/27 06:51:44;;;;;;;64.90;24.98;;;;;;;-1.43;100.00;91915.13;5057481;28;20367;-77
2023/01/27 06:54:10;;;;;;;67.47;26.27;;;;;;;-1.47;100.00;91918.16;5035033;28;20065;-78
2023/01/27 06:56:35;;;;;;;59.17;26.40;;;;;;;-1.45;100.00;91919.72;5058755;28;20055;-78
2023/01/27 06:59:01;;;;;;;61.75;24.92;;;;;;;-1.37;100.00;91922.72;5048073;28;20029;-78
2023/01/27 07:01:27;;;;;;;68.22;28.38;;;;;;;-1.38;100.00;91931.41;5034681;28;20034;-78
2023/01/27 07:03:53;;;;;;;59.33;25.90;;;;;;;-1.38;100.00;91925.50;5034893;28;20105;-77
2023/01/27 07:06:19;;;;;;;59.28;27.73;;;;;;;-1.40;100.00;91924.94;5050908;28;20522;-77
2023/01/27 07:08:46;;;;;;;67.03;27.58;;;;;;;-1.46;100.00;91926.66;5033840;28;20097;-79
2023/01/27 07:11:13;;;;;;;53.00;23.63;;;;;;;-1.43;100.00;91925.41;5033727;28;20495;-79
2023/01/27 07:13:38;;;;;;;58.55;24.77;;;;;;;-1.26;100.00;91933.97;5047159;28;20040;-78
2023/01/27 07:16:04;;;;;;;54.63;22.50;;;;;;;-1.33;100.00;91936.66;5052582;28;20041;-78
2023/01/27 07:18:30;;;;;;;64.70;23.95;;;;;;;-1.35;100.00;91946.38;5036130;28;20044;-78
2023/01/27 07:20:55;;;;;;;55.63;25.27;;;;;;;-1.44;100.00;91952.06;5038156;28;20195;-78
2023/01/27 07:23:21;;;;;;;35.75;17.13;;;;;;;-1.36;100.00;91954.31;5037493;28;20183;-78
2023/01/27 07:25:47;;;;;;;21.67;11.10;;;;;;;-1.18;100.00;91943.88;5053397;28;20052;-77
2023/01/27 07:28:12;;;;;;;48.90;21.63;;;;;;;-1.21;100.00;91957.19;5057011;28;20076;-78
2023/01/27 07:30:38;;;;;;;48.92;22.58;;;;;;;-1.38;100.00;91964.78;5041527;28;20491;-78
2023/01/27 07:33:09;;;;;;;57.53;24.42;;;;;;;-1.49;100.00;91961.25;5059527;28;20048;-79
2023/01/27 07:35:36;;;;;;;54.17;23.42;;;;;;;-1.51;100.00;91958.13;5059255;28;20118;-78
2023/01/27 07:38:02;;;;;;;64.68;27.13;;;;;;;-1.50;100.00;91964.03;5041119;28;20037;-78
2023/01/27 07:40:27;;;;;;;60.70;26.00;;;;;;;-1.53;100.00;91949.88;5056410;28;20037;-78
2023/01/27 07:42:56;;;;;;;63.78;25.27;;;;;;;-1.39;100.00;91952.19;5063493;28;20375;-79
2023/01/27 07:45:23;;;;;;;58.65;24.17;;;;;;;-1.34;100.00;91947.94;5047473;28;20078;-78
2023/01/27 07:47:48;;;;;;;62.72;26.02;;;;;;;-1.35;100.00;91955.84;5063932;28;20145;-78
2023/01/27 07:50:14;;;;;;;50.20;21.52;;;;;;;-1.15;100.00;91958.84;5064692;28;20048;-79
2023/01/27 07:52:41;;;;;;;53.00;22.92;;;;;;;-1.09;100.00;91957.91;5063615;28;20037;-78
2023/01/27 07:55:07;;;;;;;61.42;23.90;;;;;;;-1.19;100.00;91954.38;5063675;28;20100;-78
2023/01/27 07:57:33;;;;;;;61.63;24.95;;;;;;;-1.21;100.00;91962.31;5064591;28;20071;-78
2023/01/27 07:59:58;;;;;;;56.55;22.63;;;;;;;-1.30;100.00;91963.69;5063680;28;20048;-78
2023/01/27 08:02:25;;;;;;;63.22;24.42;;;;;;;-1.23;100.00;91969.47;5046459;28;20140;-78
2023/01/27 08:04:50;;;;;;;49.05;21.38;;;;;;;-1.18;100.00;91966.22;5064012;28;20048;-78
2023/01/27 08:07:16;;;;;;;53.75;23.85;;;;;;;-1.25;100.00;91971.47;5045680;28;20029;-79
2023/01/27 08:09:42;;;;;;;55.58;24.00;;;;;;;-1.34;100.00;91973.63;5062897;28;20056;-78
2023/01/27 08:12:08;;;;;;;58.45;23.48;;;;;;;-1.37;100.00;91968.94;5063840;28;20041;-78
2023/01/27 08:14:33;;;;;;;62.25;25.05;;;;;;;-1.38;100.00;91972.50;5064034;28;20723;-78
2023/01/27 08:17:00;;;;;;;66.43;26.83;;;;;;;-1.33;100.00;91975.19;5046543;28;20041;-78
2023/01/27 08:19:25;;;;;;;36.10;15.52;;;;;;;-0.97;100.00;91980.22;5063985;28;20049;-78
2023/01/27 08:21:51;;;;;;;52.97;22.33;;;;;;;-0.88;100.00;91991.72;5045539;28;20095;-78
2023/01/27 08:24:18;;;;;;;55.63;24.92;;;;;;;-1.10;100.00;91994.91;5063629;28;20049;-78
2023/01/27 08:26:43;;;;;;;58.38;22.42;;;;;;;-1.19;100.00;91991.13;5062911;28;20114;-78
2023/01/27 08:29:09;;;;;;;59.00;24.90;;;;;;;-1.14;100.00;91993.03;5063949;28;20049;-78
2023/01/27 08:31:35;;;;;;;53.78;23.38;;;;;;;-1.21;100.00;91997.50;5062480;28;20051;-78
2023/01/27 08:34:01;;;;;;;64.25;23.80;;;;;;;-1.27;100.00;91999.94;5063841;28;20084;-78
2023/01/27 08:36:27;;;;;;;51.90;22.95;;;;;;;-1.08;100.00;91998.03;5041122;28;20045;-79
2023/01/27 08:38:54;;;;;;;19.02;10.30;;;;;;;-1.06;100.00;92001.16;5043584;28;20053;-78
2023/01/27 08:41:22;;;;;;;32.35;16.13;;;;;;;-1.13;100.00;92002.28;5043330;28;20049;-78
2023/01/27 08:43:48;;;;;;;38.55;17.83;;;;;;;-1.17;100.00;92008.88;5042745;28;20461;-79
2023/01/27 08:46:15;;;;;;;27.73;14.00;;;;;;;-1.19;100.00;92013.44;5042085;28;20057;-78
2023/01/27 08:48:41;;;;;;;39.20;18.02;;;;;;;-1.35;100.00;92018.28;5040816;28;20085;-78
2023/01/27 08:51:08;;;;;;;26.08;13.68;;;;;;;-1.50;100.00;92021.28;5049535;28;20434;-78
2023/01/27 08:53:35;;;;;;;43.00;18.40;;;;;;;-1.55;100.00;92025.56;5062726;28;20048;-78
2023/01/27 08:56:08;;;;;;;46.33;18.45;;;;;;;-1.47;100.00;92025.19;5062036;28;20055;-78
2023/01/27 08:58:34;;;;;;;43.45;18.27;;;;;;;-1.64;100.00;92022.53;5061903;28;20396;-78
2023/01/27 09:01:01;;;;;;;48.95;21.30;;;;;;;-1.66;100.00;92021.19;5061588;28;20029;-79
2023/01/27 09:03:27;;;;;;;34.47;15.32;;;;;;;-1.55;100.00;92028.91;5044540;28;20127;-78
2023/01/27 09:05:53;;;;;;;42.22;16.90;;;;;;;-1.36;100.00;92021.06;5061925;28;20051;-78
2023/01/27 09:08:18;;;;;;;38.58;16.00;;;;;;;-1.35;100.00;92022.63;5061215;28;20100;-78
2023/01/27 09:10:44;;;;;;;46.60;18.20;;;;;;;-1.42;100.00;92019.38;5062121;28;20387;-79
2023/01/27 09:13:10;;;;;;;43.70;16.45;;;;;;;-1.52;100.00;92022.53;5061583;28;20041;-78
2023/01/27 09:15:36;;;;;;;38.33;16.05;;;;;;;-1.50;100.00;92023.88;5044309;28;20522;-78
2023/01/27 09:18:03;;;;;;;48.13;16.27;;;;;;;-1.55;100.00;92010.94;5062879;28;20286;-80
2023/01/27 09:20:30;;;;;;;21.92;9.25;;;;;;;-1.38;100.00;92023.06;5064605;28;20135;-79
2023/01/27 09:22:56;;;;;;;18.15;7.75;;;;;;;-1.40;100.00;92030.22;5046345;28;20068;-79
2023/01/27 09:25:22;;;;;;;39.05;16.08;;;;;;;-1.58;100.00;92031.88;5064337;28;20041;-79
2023/01/27 09:27:47;;;;;;;42.22;17.33;;;;;;;-1.55;100.00;92031.47;5064493;28;20480;-80
2023/01/27 09:30:14;;;;;;;46.03;17.58;;;;;;;-1.62;100.00;92033.38;5063963;28;20094;-79
2023/01/27 09:32:41;;;;;;;37.30;14.30;;;;;;;-1.55;100.00;92034.03;5046796;28;20135;-79
2023/01/27 09:35:07;;;;;;;41.15;18.38;;;;;;;-1.62;100.00;92017.97;5063997;28;20033;-79
2023/01/27 09:37:38;;;;;;;33.42;14.40;;;;;;;-1.47;100.00;92030.34;5064133;28;20045;-79
2023/01/27 09:40:13;;;;;;;46.25;18.70;;;;;;;-1.51;100.00;92026.66;5064332;28;20051;-79
2023/01/27 09:43:01;;;;;;;50.38;19.77;;;;;;;-1.49;100.00;92024.63;5046181;28;20066;-79
2023/01/27 09:45:43;;;;;;;50.60;20.90;;;;;;;-1.50;100.00;92026.44;5064290;28;20101;-79
2023/01/27 09:48:36;;;;;;;50.03;21.25;;;;;;;-1.42;100.00;92033.00;5063607;28;20041;-79
2023/01/27 09:51:36;;;;;;;53.17;21.77;;;;;;;-1.42;100.00;92027.88;5064181;28;20036;-79
2023/01/27 09:54:26;;;;;;;44.70;19.40;;;;;;;-1.35;100.00;92022.63;5063590;28;20037;-79
2023/01/27 09:57:03;;;;;;;43.70;19.23;;;;;;;-1.35;100.00;92030.31;5064155;28;20052;-80
2023/01/27 09:59:55;;;;;;;44.67;19.80;;;;;;;-1.35;100.00;92030.31;5063322;28;21494;-79
2023/01/27 10:02:54;;;;;;;41.72;16.80;;;;;;;-1.27;100.00;92025.63;5033277;28;20053;-79
2023/01/27 10:05:25;;;;;;;17.33;7.95;;;;;;;-1.18;100.00;92030.44;5027015;28;20093;-79
2023/01/27 10:08:29;;;;;;;38.92;17.15;;;;;;;-1.00;100.00;92026.94;5026656;28;20138;-79
2023/01/27 10:11:04;;;;;;;39.25;16.48;;;;;;;-1.07;100.00;92022.69;4997893;28;20411;-79
2023/01/27 10:13:34;;;;;;;38.90;17.40;;;;;;;-1.21;100.00;92028.31;5044487;28;20041;-78
2023/01/27 10:16:12;;;;;;;16.48;8.75;;;;;;;-0.93;100.00;92015.53;5042847;28;20069;-79
2023/01/27 10:18:50;;;;;;;39.72;16.25;;;;;;;-1.09;100.00;92013.66;5056423;28;20132;-79
2023/01/27 10:21:33;;;;;;;37.33;15.32;;;;;;;-1.15;100.00;92017.13;5063788;28;20123;-79
2023/01/27 10:24:01;;;;;;;47.88;17.27;;;;;;;-1.20;100.00;92015.25;5063837;28;20144;-79
2023/01/27 10:26:34;;;;;;;40.95;16.55;;;;;;;-1.09;100.00;92017.00;5045904;28;20040;-79
2023/01/27 10:29:11;;;;;;;38.80;15.52;;;;;;;-1.37;100.00;92009.25;5064272;28;20395;-79
2023/01/27 10:31:48;;;;;;;30.02;12.93;;;;;;;-1.42;100.00;92007.31;5064047;28;20093;-78
2023/01/27 10:34:31;;;;;;;30.48;11.40;;;;;;;-1.12;100.00;92007.19;5064666;28;20044;-79
2023/01/27 10:37:16;;;;;;;24.25;7.72;;;;;;;-1.10;100.00;92005.19;5063831;28;20046;-79
2023/01/27 10:40:05;;;;;;;23.60;9.95;;;;;;;-1.22;100.00;91999.28;5063642;28;20048;-79
2023/01/27 10:42:48;;;;;;;23.83;10.90;;;;;;;-1.14;100.00;92004.06;5043255;28;20331;-78
2023/01/27 10:45:45;;;;;;;33.35;13.20;;;;;;;-1.10;100.00;91999.28;5060303;28;20486;-79
2023/01/27 10:48:26;;;;;;;32.47;15.45;;;;;;;-1.23;100.00;91997.72;5037603;28;20479;-78
2023/01/27 10:51:13;;;;;;;38.90;14.82;;;;;;;-1.29;100.00;92001.19;5063292;28;20080;-78
2023/01/27 10:54:03;;;;;;;36.13;14.07;;;;;;;-1.30;100.00;92002.19;5062426;28;20044;-78
2023/01/27 10:56:44;;;;;;;20.25;8.95;;;;;;;-1.10;100.00;91997.47;5061548;28;20041;-78
2023/01/27 10:59:44;;;;;;;32.20;14.70;;;;;;;-1.26;100.00;91995.63;5061334;28;20099;-78
2023/01/27 11:02:28;;;;;;;35.55;14.30;;;;;;;-1.40;100.00;91999.41;5064500;28;20275;-78
2023/01/27 11:04:59;;;;;;;19.30;7.60;;;;;;;-1.24;100.00;91998.72;5047559;28;20039;-78
2023/01/27 11:07:25;;;;;;;21.17;9.35;;;;;;;-1.21;100.00;91990.56;5064246;28;20554;-78
2023/01/27 11:10:15;;;;;;;34.78;13.10;;;;;;;-1.32;100.00;91992.16;5063753;28;20059;-78
2023/01/27 11:12:47;;;;;;;28.00;13.23;;;;;;;-1.37;100.00;91996.41;5064212;28;20036;-79
2023/01/27 11:15:23;;;;;;;36.17;11.93;;;;;;;-1.36;100.00;91987.69;5061825;28;20100;-78
2023/01/27 11:18:03;;;;;;;30.73;13.02;;;;;;;-1.38;100.00;91987.13;5062972;28;20056;-78
2023/01/27 11:20:37;;;;;;;36.28;13.88;;;;;;;-1.41;100.00;91987.59;5045520;28;20049;-78
2023/01/27 11:23:08;;;;;;;26.42;10.90;;;;;;;-1.38;100.00;91989.69;5065962;28;20554;-78
2023/01/27 11:25:46;;;;;;;30.50;13.70;;;;;;;-1.53;100.00;91985.81;5063985;28;20037;-77
2023/01/27 11:28:23;;;;;;;20.50;10.80;;;;;;;-1.64;100.00;91980.66;5063425;28;20407;-77
2023/01/27 11:31:34;;;;;;;18.70;9.15;;;;;;;-1.53;100.00;91988.38;5041233;28;20045;-78
2023/01/27 11:34:09;;;;;;;32.17;13.23;;;;;;;-1.54;100.00;91983.47;5038459;28;20495;-78
2023/01/27 11:36:35;;;;;;;10.95;5.78;;;;;;;-1.42;100.00;91975.75;5062454;28;20113;-78
2023/01/27 11:39:03;;;;;;;31.83;13.77;;;;;;;-1.51;100.00;91978.66;5044367;28;20107;-78
2023/01/27 11:41:35;;;;;;;35.05;14.27;;;;;;;-1.49;100.00;91979.22;5061240;28;20049;-78
2023/01/27 11:44:16;;;;;;;38.45;15.00;;;;;;;-1.51;100.00;91968.41;5043732;28;20474;-78
2023/01/27 11:46:43;;;;;;;43.63;14.55;;;;;;;-1.53;100.00;91972.19;5060758;28;20045;-78
2023/01/27 11:49:09;;;;;;;29.70;11.80;;;;;;;-1.34;100.00;91980.53;5061488;28;20068;-78